sensor_id;sensor_type;location;lat;lon;timestamp;P1;durP1;ratioP1;P2;durP2;ratioP2
23232;SDS011;11785;49.500;8.288;2024-03-29T00:01:32;7.55;;;2.83;;
23232;SDS011;11785;49.500;8.288;2024-03-29T00:03:58;4.30;;;2.60;;
23232;SDS011;11785;49.500;8.288;2024-03-29T00:06:23;5.63;;;2.42;;
23232;SDS011;11785;49.500;8.288;2024-03-29T00:08:49;4.70;;;2.78;;
23232;SDS011;11785;49.500;8.288;2024-03-29T00:11:14;3.85;;;2.40;;
23232;SDS011;11785;49.500;8.288;2024-03-29T00:13:40;6.22;;;2.53;;
23232;SDS011;11785;49.500;8.288;2024-03-29T00:16:06;6.28;;;2.50;;
23232;SDS011;11785;49.500;8.288;2024-03-29T00:18:31;4.30;;;2.53;;
23232;SDS011;11785;49.500;8.288;2024-03-29T00:20:57;5.00;;;2.70;;
23232;SDS011;11785;49.500;8.288;2024-03-29T00:23:22;4.13;;;2.03;;
23232;SDS011;11785;49.500;8.288;2024-03-29T00:25:48;5.38;;;2.13;;
23232;SDS011;11785;49.500;8.288;2024-03-29T00:28:14;4.43;;;2.20;;
23232;SDS011;11785;49.500;8.288;2024-03-29T00:30:39;4.47;;;2.10;;
23232;SDS011;11785;49.500;8.288;2024-03-29T00:33:05;3.95;;;2.08;;
23232;SDS011;11785;49.500;8.288;2024-03-29T00:35:30;3.50;;;1.92;;
23232;SDS011;11785;49.500;8.288;2024-03-29T00:37:56;3.72;;;2.00;;
23232;SDS011;11785;49.500;8.288;2024-03-29T00:40:22;2.53;;;1.88;;
23232;SDS011;11785;49.500;8.288;2024-03-29T00:42:47;3.13;;;1.65;;
23232;SDS011;11785;49.500;8.288;2024-03-29T00:45:13;5.05;;;2.10;;
23232;SDS011;11785;49.500;8.288;2024-03-29T00:47:38;5.82;;;1.98;;
23232;SDS011;11785;49.500;8.288;2024-03-29T00:50:04;4.03;;;1.80;;
23232;SDS011;11785;49.500;8.288;2024-03-29T00:52:30;5.70;;;1.73;;
23232;SDS011;11785;49.500;8.288;2024-03-29T00:54:55;5.00;;;1.60;;
23232;SDS011;11785;49.500;8.288;2024-03-29T00:57:21;4.15;;;1.88;;
23232;SDS011;11785;49.500;8.288;2024-03-29T00:59:47;6.18;;;1.70;;
23232;SDS011;11785;49.500;8.288;2024-03-29T01:02:12;4.05;;;2.00;;
23232;SDS011;11785;49.500;8.288;2024-03-29T01:04:38;3.58;;;1.80;;
23232;SDS011;11785;49.500;8.288;2024-03-29T01:07:05;4.03;;;1.70;;
23232;SDS011;11785;49.500;8.288;2024-03-29T01:09:30;3.90;;;1.83;;
23232;SDS011;11785;49.500;8.288;2024-03-29T01:11:56;6.20;;;1.70;;
23232;SDS011;11785;49.500;8.288;2024-03-29T01:14:22;5.68;;;2.03;;
23232;SDS011;11785;49.500;8.288;2024-03-29T01:16:47;3.33;;;1.73;;
23232;SDS011;11785;49.500;8.288;2024-03-29T01:19:13;3.75;;;1.65;;
23232;SDS011;11785;49.500;8.288;2024-03-29T01:21:38;8.77;;;2.20;;
23232;SDS011;11785;49.500;8.288;2024-03-29T01:24:04;3.85;;;1.90;;
23232;SDS011;11785;49.500;8.288;2024-03-29T01:26:30;5.35;;;1.90;;
23232;SDS011;11785;49.500;8.288;2024-03-29T01:28:56;4.18;;;1.80;;
23232;SDS011;11785;49.500;8.288;2024-03-29T01:31:22;5.00;;;1.67;;
23232;SDS011;11785;49.500;8.288;2024-03-29T01:33:50;4.63;;;1.90;;
23232;SDS011;11785;49.500;8.288;2024-03-29T01:36:16;3.60;;;1.60;;
23232;SDS011;11785;49.500;8.288;2024-03-29T01:38:42;6.30;;;2.00;;
23232;SDS011;11785;49.500;8.288;2024-03-29T01:41:10;3.15;;;1.73;;
23232;SDS011;11785;49.500;8.288;2024-03-29T01:43:37;4.60;;;1.98;;
23232;SDS011;11785;49.500;8.288;2024-03-29T01:46:03;4.20;;;2.35;;
23232;SDS011;11785;49.500;8.288;2024-03-29T01:48:31;4.55;;;1.85;;
23232;SDS011;11785;49.500;8.288;2024-03-29T01:50:57;3.85;;;1.77;;
23232;SDS011;11785;49.500;8.288;2024-03-29T01:53:24;3.78;;;1.85;;
23232;SDS011;11785;49.500;8.288;2024-03-29T01:55:50;2.97;;;1.80;;
23232;SDS011;11785;49.500;8.288;2024-03-29T01:58:16;3.67;;;1.85;;
23232;SDS011;11785;49.500;8.288;2024-03-29T02:00:48;6.38;;;2.63;;
23232;SDS011;11785;49.500;8.288;2024-03-29T02:03:19;3.45;;;1.92;;
23232;SDS011;11785;49.500;8.288;2024-03-29T02:05:48;5.22;;;1.80;;
23232;SDS011;11785;49.500;8.288;2024-03-29T02:08:14;4.10;;;1.60;;
23232;SDS011;11785;49.500;8.288;2024-03-29T02:10:40;4.57;;;1.73;;
23232;SDS011;11785;49.500;8.288;2024-03-29T02:15:42;4.50;;;1.55;;
23232;SDS011;11785;49.500;8.288;2024-03-29T02:18:08;5.50;;;2.03;;
23232;SDS011;11785;49.500;8.288;2024-03-29T02:20:33;3.47;;;1.88;;
23232;SDS011;11785;49.500;8.288;2024-03-29T02:23:11;3.65;;;1.60;;
23232;SDS011;11785;49.500;8.288;2024-03-29T02:25:39;4.00;;;1.60;;
23232;SDS011;11785;49.500;8.288;2024-03-29T02:28:04;6.40;;;1.80;;
23232;SDS011;11785;49.500;8.288;2024-03-29T02:30:30;2.90;;;1.90;;
23232;SDS011;11785;49.500;8.288;2024-03-29T02:32:58;4.65;;;1.83;;
23232;SDS011;11785;49.500;8.288;2024-03-29T02:35:24;3.83;;;1.50;;
23232;SDS011;11785;49.500;8.288;2024-03-29T02:37:49;3.80;;;1.83;;
23232;SDS011;11785;49.500;8.288;2024-03-29T02:40:15;5.13;;;1.33;;
23232;SDS011;11785;49.500;8.288;2024-03-29T02:42:41;2.58;;;1.50;;
23232;SDS011;11785;49.500;8.288;2024-03-29T02:45:07;2.95;;;1.55;;
23232;SDS011;11785;49.500;8.288;2024-03-29T02:47:33;3.30;;;1.40;;
23232;SDS011;11785;49.500;8.288;2024-03-29T02:49:58;3.80;;;1.50;;
23232;SDS011;11785;49.500;8.288;2024-03-29T02:52:24;3.42;;;1.50;;
23232;SDS011;11785;49.500;8.288;2024-03-29T02:54:50;4.22;;;1.33;;
23232;SDS011;11785;49.500;8.288;2024-03-29T02:57:15;4.80;;;1.60;;
23232;SDS011;11785;49.500;8.288;2024-03-29T02:59:41;3.28;;;1.50;;
23232;SDS011;11785;49.500;8.288;2024-03-29T03:02:07;2.35;;;1.30;;
23232;SDS011;11785;49.500;8.288;2024-03-29T03:04:32;3.70;;;1.70;;
23232;SDS011;11785;49.500;8.288;2024-03-29T03:06:58;3.80;;;1.52;;
23232;SDS011;11785;49.500;8.288;2024-03-29T03:09:43;3.10;;;1.20;;
23232;SDS011;11785;49.500;8.288;2024-03-29T03:12:29;5.03;;;1.30;;
23232;SDS011;11785;49.500;8.288;2024-03-29T03:14:54;3.40;;;1.05;;
23232;SDS011;11785;49.500;8.288;2024-03-29T03:17:20;4.63;;;1.25;;
23232;SDS011;11785;49.500;8.288;2024-03-29T03:19:46;2.40;;;1.35;;
23232;SDS011;11785;49.500;8.288;2024-03-29T03:22:12;4.93;;;1.40;;
23232;SDS011;11785;49.500;8.288;2024-03-29T03:24:37;1.50;;;1.10;;
23232;SDS011;11785;49.500;8.288;2024-03-29T03:27:03;4.20;;;1.48;;
23232;SDS011;11785;49.500;8.288;2024-03-29T03:29:29;2.55;;;1.38;;
23232;SDS011;11785;49.500;8.288;2024-03-29T03:31:54;4.88;;;1.20;;
23232;SDS011;11785;49.500;8.288;2024-03-29T03:34:20;3.08;;;1.20;;
23232;SDS011;11785;49.500;8.288;2024-03-29T03:36:45;3.35;;;1.70;;
23232;SDS011;11785;49.500;8.288;2024-03-29T03:39:11;3.65;;;1.33;;
23232;SDS011;11785;49.500;8.288;2024-03-29T03:41:36;2.17;;;1.30;;
23232;SDS011;11785;49.500;8.288;2024-03-29T03:44:02;2.50;;;1.63;;
23232;SDS011;11785;49.500;8.288;2024-03-29T03:46:27;2.20;;;1.35;;
23232;SDS011;11785;49.500;8.288;2024-03-29T03:48:53;3.53;;;1.95;;
23232;SDS011;11785;49.500;8.288;2024-03-29T03:51:18;3.78;;;1.92;;
23232;SDS011;11785;49.500;8.288;2024-03-29T03:53:44;2.63;;;1.20;;
23232;SDS011;11785;49.500;8.288;2024-03-29T03:56:10;3.95;;;1.45;;
23232;SDS011;11785;49.500;8.288;2024-03-29T03:58:35;2.78;;;1.35;;
23232;SDS011;11785;49.500;8.288;2024-03-29T04:01:04;2.85;;;1.02;;
23232;SDS011;11785;49.500;8.288;2024-03-29T04:03:30;2.50;;;1.50;;
23232;SDS011;11785;49.500;8.288;2024-03-29T04:05:56;2.75;;;1.15;;
23232;SDS011;11785;49.500;8.288;2024-03-29T04:08:22;3.85;;;1.45;;
23232;SDS011;11785;49.500;8.288;2024-03-29T04:10:47;2.47;;;1.30;;
23232;SDS011;11785;49.500;8.288;2024-03-29T04:13:13;2.20;;;1.52;;
23232;SDS011;11785;49.500;8.288;2024-03-29T04:15:38;2.08;;;1.25;;
23232;SDS011;11785;49.500;8.288;2024-03-29T04:18:04;3.97;;;1.45;;
23232;SDS011;11785;49.500;8.288;2024-03-29T04:20:31;3.72;;;1.65;;
23232;SDS011;11785;49.500;8.288;2024-03-29T04:22:57;2.70;;;1.80;;
23232;SDS011;11785;49.500;8.288;2024-03-29T04:25:22;3.17;;;1.38;;
23232;SDS011;11785;49.500;8.288;2024-03-29T04:27:48;4.40;;;1.50;;
23232;SDS011;11785;49.500;8.288;2024-03-29T04:30:13;3.05;;;1.45;;
23232;SDS011;11785;49.500;8.288;2024-03-29T04:32:39;4.70;;;1.50;;
23232;SDS011;11785;49.500;8.288;2024-03-29T04:35:05;5.53;;;1.50;;
23232;SDS011;11785;49.500;8.288;2024-03-29T04:37:30;3.38;;;1.50;;
23232;SDS011;11785;49.500;8.288;2024-03-29T04:39:56;3.65;;;1.70;;
23232;SDS011;11785;49.500;8.288;2024-03-29T04:42:22;3.60;;;1.88;;
23232;SDS011;11785;49.500;8.288;2024-03-29T04:44:47;2.38;;;1.35;;
23232;SDS011;11785;49.500;8.288;2024-03-29T04:47:13;3.10;;;1.70;;
23232;SDS011;11785;49.500;8.288;2024-03-29T04:49:38;6.13;;;1.58;;
23232;SDS011;11785;49.500;8.288;2024-03-29T04:52:04;4.35;;;1.90;;
23232;SDS011;11785;49.500;8.288;2024-03-29T04:54:31;4.60;;;2.25;;
23232;SDS011;11785;49.500;8.288;2024-03-29T04:56:58;5.60;;;2.30;;
23232;SDS011;11785;49.500;8.288;2024-03-29T04:59:28;3.67;;;1.70;;
23232;SDS011;11785;49.500;8.288;2024-03-29T05:01:54;2.88;;;1.52;;
23232;SDS011;11785;49.500;8.288;2024-03-29T05:04:21;4.68;;;2.13;;
23232;SDS011;11785;49.500;8.288;2024-03-29T05:06:53;7.15;;;2.83;;
23232;SDS011;11785;49.500;8.288;2024-03-29T05:09:23;1.90;;;1.20;;
23232;SDS011;11785;49.500;8.288;2024-03-29T05:11:49;2.33;;;1.50;;
23232;SDS011;11785;49.500;8.288;2024-03-29T05:14:16;3.78;;;1.30;;
23232;SDS011;11785;49.500;8.288;2024-03-29T05:16:46;3.72;;;1.67;;
23232;SDS011;11785;49.500;8.288;2024-03-29T05:19:13;2.22;;;1.20;;
23232;SDS011;11785;49.500;8.288;2024-03-29T05:21:40;3.60;;;1.92;;
23232;SDS011;11785;49.500;8.288;2024-03-29T05:24:06;3.35;;;1.25;;
23232;SDS011;11785;49.500;8.288;2024-03-29T05:26:33;4.25;;;1.40;;
23232;SDS011;11785;49.500;8.288;2024-03-29T05:28:59;6.25;;;1.67;;
23232;SDS011;11785;49.500;8.288;2024-03-29T05:31:25;2.90;;;1.55;;
23232;SDS011;11785;49.500;8.288;2024-03-29T05:33:51;2.28;;;1.02;;
23232;SDS011;11785;49.500;8.288;2024-03-29T05:36:17;3.97;;;1.30;;
23232;SDS011;11785;49.500;8.288;2024-03-29T05:38:43;4.60;;;1.20;;
23232;SDS011;11785;49.500;8.288;2024-03-29T05:41:10;2.67;;;1.00;;
23232;SDS011;11785;49.500;8.288;2024-03-29T05:43:35;3.58;;;1.42;;
23232;SDS011;11785;49.500;8.288;2024-03-29T05:46:01;1.48;;;1.10;;
23232;SDS011;11785;49.500;8.288;2024-03-29T05:48:27;2.92;;;1.20;;
23232;SDS011;11785;49.500;8.288;2024-03-29T05:50:54;2.25;;;1.30;;
23232;SDS011;11785;49.500;8.288;2024-03-29T05:53:20;4.35;;;1.40;;
23232;SDS011;11785;49.500;8.288;2024-03-29T05:55:46;4.90;;;1.13;;
23232;SDS011;11785;49.500;8.288;2024-03-29T05:58:12;3.10;;;1.27;;
23232;SDS011;11785;49.500;8.288;2024-03-29T06:00:42;3.00;;;1.65;;
23232;SDS011;11785;49.500;8.288;2024-03-29T06:03:08;3.35;;;1.20;;
23232;SDS011;11785;49.500;8.288;2024-03-29T06:05:33;1.65;;;1.10;;
23232;SDS011;11785;49.500;8.288;2024-03-29T06:07:59;2.90;;;1.10;;
23232;SDS011;11785;49.500;8.288;2024-03-29T06:10:25;4.13;;;1.02;;
23232;SDS011;11785;49.500;8.288;2024-03-29T06:12:50;3.05;;;1.08;;
23232;SDS011;11785;49.500;8.288;2024-03-29T06:15:16;1.38;;;1.17;;
23232;SDS011;11785;49.500;8.288;2024-03-29T06:18:00;3.45;;;1.23;;
23232;SDS011;11785;49.500;8.288;2024-03-29T06:20:27;2.42;;;1.13;;
23232;SDS011;11785;49.500;8.288;2024-03-29T06:22:52;4.10;;;1.10;;
23232;SDS011;11785;49.500;8.288;2024-03-29T06:25:18;2.38;;;1.42;;
23232;SDS011;11785;49.500;8.288;2024-03-29T06:27:44;1.90;;;1.30;;
23232;SDS011;11785;49.500;8.288;2024-03-29T06:30:12;2.28;;;1.15;;
23232;SDS011;11785;49.500;8.288;2024-03-29T06:32:39;1.92;;;1.10;;
23232;SDS011;11785;49.500;8.288;2024-03-29T06:35:04;3.50;;;1.23;;
23232;SDS011;11785;49.500;8.288;2024-03-29T06:37:31;2.47;;;1.45;;
23232;SDS011;11785;49.500;8.288;2024-03-29T06:39:56;2.45;;;1.40;;
23232;SDS011;11785;49.500;8.288;2024-03-29T06:42:22;4.88;;;1.40;;
23232;SDS011;11785;49.500;8.288;2024-03-29T06:44:48;6.50;;;1.10;;
23232;SDS011;11785;49.500;8.288;2024-03-29T06:47:14;1.83;;;1.10;;
23232;SDS011;11785;49.500;8.288;2024-03-29T06:49:39;2.35;;;1.15;;
23232;SDS011;11785;49.500;8.288;2024-03-29T06:52:05;1.33;;;1.23;;
23232;SDS011;11785;49.500;8.288;2024-03-29T06:54:31;5.65;;;1.52;;
23232;SDS011;11785;49.500;8.288;2024-03-29T06:56:57;2.90;;;1.33;;
23232;SDS011;11785;49.500;8.288;2024-03-29T06:59:23;1.95;;;1.25;;
23232;SDS011;11785;49.500;8.288;2024-03-29T07:01:49;2.47;;;1.10;;
23232;SDS011;11785;49.500;8.288;2024-03-29T07:04:24;1.92;;;1.33;;
23232;SDS011;11785;49.500;8.288;2024-03-29T07:06:50;1.67;;;1.17;;
23232;SDS011;11785;49.500;8.288;2024-03-29T07:09:20;2.30;;;1.13;;
23232;SDS011;11785;49.500;8.288;2024-03-29T07:11:47;2.30;;;1.10;;
23232;SDS011;11785;49.500;8.288;2024-03-29T07:14:14;2.95;;;1.40;;
23232;SDS011;11785;49.500;8.288;2024-03-29T07:16:40;1.75;;;1.27;;
23232;SDS011;11785;49.500;8.288;2024-03-29T07:19:06;5.25;;;1.83;;
23232;SDS011;11785;49.500;8.288;2024-03-29T07:21:31;5.45;;;3.65;;
23232;SDS011;11785;49.500;8.288;2024-03-29T07:23:57;3.17;;;2.13;;
23232;SDS011;11785;49.500;8.288;2024-03-29T07:26:22;3.40;;;1.80;;
23232;SDS011;11785;49.500;8.288;2024-03-29T07:28:48;2.80;;;1.45;;
23232;SDS011;11785;49.500;8.288;2024-03-29T07:31:14;2.08;;;1.33;;
23232;SDS011;11785;49.500;8.288;2024-03-29T07:33:39;2.55;;;1.75;;
23232;SDS011;11785;49.500;8.288;2024-03-29T07:36:05;1.83;;;1.20;;
23232;SDS011;11785;49.500;8.288;2024-03-29T07:38:31;3.83;;;1.60;;
23232;SDS011;11785;49.500;8.288;2024-03-29T07:40:56;2.00;;;1.33;;
23232;SDS011;11785;49.500;8.288;2024-03-29T07:43:22;1.13;;;0.88;;
23232;SDS011;11785;49.500;8.288;2024-03-29T07:45:48;3.05;;;1.00;;
23232;SDS011;11785;49.500;8.288;2024-03-29T07:48:15;3.30;;;2.00;;
23232;SDS011;11785;49.500;8.288;2024-03-29T07:50:42;2.88;;;1.83;;
23232;SDS011;11785;49.500;8.288;2024-03-29T07:53:08;3.38;;;1.48;;
23232;SDS011;11785;49.500;8.288;2024-03-29T07:55:37;1.92;;;1.60;;
23232;SDS011;11785;49.500;8.288;2024-03-29T07:58:04;2.90;;;1.45;;
23232;SDS011;11785;49.500;8.288;2024-03-29T08:00:33;2.22;;;1.48;;
23232;SDS011;11785;49.500;8.288;2024-03-29T08:02:59;2.35;;;1.55;;
23232;SDS011;11785;49.500;8.288;2024-03-29T08:05:26;2.85;;;1.48;;
23232;SDS011;11785;49.500;8.288;2024-03-29T08:07:54;1.98;;;1.40;;
23232;SDS011;11785;49.500;8.288;2024-03-29T08:10:20;3.20;;;1.45;;
23232;SDS011;11785;49.500;8.288;2024-03-29T08:12:46;2.38;;;1.30;;
23232;SDS011;11785;49.500;8.288;2024-03-29T08:15:11;5.68;;;1.90;;
23232;SDS011;11785;49.500;8.288;2024-03-29T08:17:37;4.10;;;1.92;;
23232;SDS011;11785;49.500;8.288;2024-03-29T08:20:03;2.75;;;2.00;;
23232;SDS011;11785;49.500;8.288;2024-03-29T08:22:29;3.78;;;1.55;;
23232;SDS011;11785;49.500;8.288;2024-03-29T08:24:58;2.53;;;1.75;;
23232;SDS011;11785;49.500;8.288;2024-03-29T08:27:24;2.50;;;1.70;;
23232;SDS011;11785;49.500;8.288;2024-03-29T08:29:49;3.45;;;1.73;;
23232;SDS011;11785;49.500;8.288;2024-03-29T08:32:15;7.13;;;1.60;;
23232;SDS011;11785;49.500;8.288;2024-03-29T08:34:41;3.33;;;1.60;;
23232;SDS011;11785;49.500;8.288;2024-03-29T08:37:06;2.65;;;1.50;;
23232;SDS011;11785;49.500;8.288;2024-03-29T08:39:32;2.72;;;1.92;;
23232;SDS011;11785;49.500;8.288;2024-03-29T08:41:59;4.35;;;1.52;;
23232;SDS011;11785;49.500;8.288;2024-03-29T08:44:27;1.65;;;1.33;;
23232;SDS011;11785;49.500;8.288;2024-03-29T08:46:53;2.78;;;1.80;;
23232;SDS011;11785;49.500;8.288;2024-03-29T08:49:22;4.70;;;1.55;;
23232;SDS011;11785;49.500;8.288;2024-03-29T08:51:47;2.05;;;1.48;;
23232;SDS011;11785;49.500;8.288;2024-03-29T08:54:13;5.03;;;1.85;;
23232;SDS011;11785;49.500;8.288;2024-03-29T08:56:38;5.78;;;1.80;;
23232;SDS011;11785;49.500;8.288;2024-03-29T08:59:05;4.75;;;1.85;;
23232;SDS011;11785;49.500;8.288;2024-03-29T09:01:42;3.58;;;1.70;;
23232;SDS011;11785;49.500;8.288;2024-03-29T09:04:09;3.35;;;1.80;;
23232;SDS011;11785;49.500;8.288;2024-03-29T09:06:38;4.63;;;1.60;;
23232;SDS011;11785;49.500;8.288;2024-03-29T09:09:06;1.98;;;1.50;;
23232;SDS011;11785;49.500;8.288;2024-03-29T09:11:33;2.10;;;1.40;;
23232;SDS011;11785;49.500;8.288;2024-03-29T09:13:59;2.88;;;1.45;;
23232;SDS011;11785;49.500;8.288;2024-03-29T09:16:26;4.72;;;1.35;;
23232;SDS011;11785;49.500;8.288;2024-03-29T09:18:51;3.65;;;1.60;;
23232;SDS011;11785;49.500;8.288;2024-03-29T09:21:19;2.08;;;1.40;;
23232;SDS011;11785;49.500;8.288;2024-03-29T09:23:45;2.20;;;1.40;;
23232;SDS011;11785;49.500;8.288;2024-03-29T09:26:11;2.30;;;1.20;;
23232;SDS011;11785;49.500;8.288;2024-03-29T09:28:39;2.85;;;1.30;;
23232;SDS011;11785;49.500;8.288;2024-03-29T09:31:05;2.97;;;1.50;;
23232;SDS011;11785;49.500;8.288;2024-03-29T09:33:30;2.80;;;1.27;;
23232;SDS011;11785;49.500;8.288;2024-03-29T09:35:56;1.83;;;1.15;;
23232;SDS011;11785;49.500;8.288;2024-03-29T09:38:23;2.22;;;1.20;;
23232;SDS011;11785;49.500;8.288;2024-03-29T09:41:11;4.03;;;1.70;;
23232;SDS011;11785;49.500;8.288;2024-03-29T09:43:43;4.57;;;1.50;;
23232;SDS011;11785;49.500;8.288;2024-03-29T09:46:10;4.38;;;1.75;;
23232;SDS011;11785;49.500;8.288;2024-03-29T09:48:37;2.42;;;1.27;;
23232;SDS011;11785;49.500;8.288;2024-03-29T09:51:06;2.10;;;1.20;;
23232;SDS011;11785;49.500;8.288;2024-03-29T09:53:33;2.28;;;1.42;;
23232;SDS011;11785;49.500;8.288;2024-03-29T09:56:01;3.90;;;1.60;;
23232;SDS011;11785;49.500;8.288;2024-03-29T09:58:31;3.03;;;1.33;;
23232;SDS011;11785;49.500;8.288;2024-03-29T10:01:05;1.40;;;1.30;;
23232;SDS011;11785;49.500;8.288;2024-03-29T10:03:39;4.07;;;2.03;;
23232;SDS011;11785;49.500;8.288;2024-03-29T10:06:07;3.55;;;1.83;;
23232;SDS011;11785;49.500;8.288;2024-03-29T10:08:33;2.97;;;1.90;;
23232;SDS011;11785;49.500;8.288;2024-03-29T10:10:59;3.17;;;1.50;;
23232;SDS011;11785;49.500;8.288;2024-03-29T10:13:25;3.25;;;1.73;;
23232;SDS011;11785;49.500;8.288;2024-03-29T10:15:52;3.58;;;2.13;;
23232;SDS011;11785;49.500;8.288;2024-03-29T10:18:20;3.70;;;1.90;;
23232;SDS011;11785;49.500;8.288;2024-03-29T10:23:26;4.63;;;2.05;;
23232;SDS011;11785;49.500;8.288;2024-03-29T10:25:51;3.85;;;1.75;;
23232;SDS011;11785;49.500;8.288;2024-03-29T10:28:18;2.92;;;1.85;;
23232;SDS011;11785;49.500;8.288;2024-03-29T10:30:44;2.35;;;1.60;;
23232;SDS011;11785;49.500;8.288;2024-03-29T10:33:10;5.75;;;2.50;;
23232;SDS011;11785;49.500;8.288;2024-03-29T10:35:36;5.60;;;2.08;;
23232;SDS011;11785;49.500;8.288;2024-03-29T10:38:02;4.30;;;2.00;;
23232;SDS011;11785;49.500;8.288;2024-03-29T10:40:29;3.13;;;2.00;;
23232;SDS011;11785;49.500;8.288;2024-03-29T10:42:55;2.97;;;1.60;;
23232;SDS011;11785;49.500;8.288;2024-03-29T10:45:22;4.75;;;1.92;;
23232;SDS011;11785;49.500;8.288;2024-03-29T10:47:48;1.80;;;1.70;;
23232;SDS011;11785;49.500;8.288;2024-03-29T10:50:14;3.55;;;1.80;;
23232;SDS011;11785;49.500;8.288;2024-03-29T10:52:42;3.40;;;1.70;;
23232;SDS011;11785;49.500;8.288;2024-03-29T10:55:11;2.28;;;1.60;;
23232;SDS011;11785;49.500;8.288;2024-03-29T10:57:40;2.08;;;1.48;;
23232;SDS011;11785;49.500;8.288;2024-03-29T11:00:08;3.97;;;1.60;;
23232;SDS011;11785;49.500;8.288;2024-03-29T11:02:50;2.47;;;1.85;;
23232;SDS011;11785;49.500;8.288;2024-03-29T11:05:22;3.25;;;2.00;;
23232;SDS011;11785;49.500;8.288;2024-03-29T11:07:51;4.45;;;1.98;;
23232;SDS011;11785;49.500;8.288;2024-03-29T11:13:11;6.63;;;2.08;;
23232;SDS011;11785;49.500;8.288;2024-03-29T11:15:55;4.07;;;1.92;;
23232;SDS011;11785;49.500;8.288;2024-03-29T11:18:21;2.65;;;1.83;;
23232;SDS011;11785;49.500;8.288;2024-03-29T11:20:49;2.50;;;1.67;;
23232;SDS011;11785;49.500;8.288;2024-03-29T11:23:16;3.03;;;1.77;;
23232;SDS011;11785;49.500;8.288;2024-03-29T11:25:48;1.73;;;1.63;;
23232;SDS011;11785;49.500;8.288;2024-03-29T11:28:22;2.17;;;1.73;;
23232;SDS011;11785;49.500;8.288;2024-03-29T11:30:51;2.97;;;1.70;;
23232;SDS011;11785;49.500;8.288;2024-03-29T11:38:50;2.63;;;1.85;;
23232;SDS011;11785;49.500;8.288;2024-03-29T11:41:20;2.88;;;1.83;;
23232;SDS011;11785;49.500;8.288;2024-03-29T11:43:48;2.40;;;1.88;;
23232;SDS011;11785;49.500;8.288;2024-03-29T11:46:15;1.60;;;1.50;;
23232;SDS011;11785;49.500;8.288;2024-03-29T11:48:41;2.97;;;1.75;;
23232;SDS011;11785;49.500;8.288;2024-03-29T11:51:11;2.88;;;1.70;;
23232;SDS011;11785;49.500;8.288;2024-03-29T11:53:39;2.38;;;2.10;;
23232;SDS011;11785;49.500;8.288;2024-03-29T11:56:05;1.85;;;1.50;;
23232;SDS011;11785;49.500;8.288;2024-03-29T11:58:33;2.45;;;1.90;;
23232;SDS011;11785;49.500;8.288;2024-03-29T12:00:59;3.90;;;2.15;;
23232;SDS011;11785;49.500;8.288;2024-03-29T12:03:26;3.38;;;1.80;;
23232;SDS011;11785;49.500;8.288;2024-03-29T12:05:54;2.33;;;2.08;;
23232;SDS011;11785;49.500;8.288;2024-03-29T12:08:27;3.03;;;2.05;;
23232;SDS011;11785;49.500;8.288;2024-03-29T12:10:57;3.67;;;2.20;;
23232;SDS011;11785;49.500;8.288;2024-03-29T12:13:24;2.42;;;1.85;;
23232;SDS011;11785;49.500;8.288;2024-03-29T12:15:50;3.97;;;2.22;;
23232;SDS011;11785;49.500;8.288;2024-03-29T12:18:16;2.60;;;2.00;;
23232;SDS011;11785;49.500;8.288;2024-03-29T12:20:44;2.78;;;2.35;;
23232;SDS011;11785;49.500;8.288;2024-03-29T12:23:11;2.47;;;2.28;;
23232;SDS011;11785;49.500;8.288;2024-03-29T12:25:38;3.58;;;2.28;;
23232;SDS011;11785;49.500;8.288;2024-03-29T12:28:05;3.95;;;2.42;;
23232;SDS011;11785;49.500;8.288;2024-03-29T12:30:32;4.78;;;1.85;;
23232;SDS011;11785;49.500;8.288;2024-03-29T12:33:02;3.72;;;2.17;;
23232;SDS011;11785;49.500;8.288;2024-03-29T12:35:32;6.32;;;4.15;;
23232;SDS011;11785;49.500;8.288;2024-03-29T12:37:59;6.35;;;4.32;;
23232;SDS011;11785;49.500;8.288;2024-03-29T12:40:27;3.67;;;2.65;;
23232;SDS011;11785;49.500;8.288;2024-03-29T12:42:55;2.15;;;1.95;;
23232;SDS011;11785;49.500;8.288;2024-03-29T12:45:21;3.90;;;2.00;;
23232;SDS011;11785;49.500;8.288;2024-03-29T12:47:47;2.10;;;1.90;;
23232;SDS011;11785;49.500;8.288;2024-03-29T12:53:11;6.32;;;5.40;;
23232;SDS011;11785;49.500;8.288;2024-03-29T12:55:41;3.95;;;2.75;;
23232;SDS011;11785;49.500;8.288;2024-03-29T12:58:14;3.85;;;2.53;;
23232;SDS011;11785;49.500;8.288;2024-03-29T13:00:41;3.58;;;2.30;;
23232;SDS011;11785;49.500;8.288;2024-03-29T13:03:07;2.45;;;1.95;;
23232;SDS011;11785;49.500;8.288;2024-03-29T13:05:36;4.38;;;2.33;;
23232;SDS011;11785;49.500;8.288;2024-03-29T13:08:06;3.25;;;2.42;;
23232;SDS011;11785;49.500;8.288;2024-03-29T13:10:34;2.72;;;2.50;;
23232;SDS011;11785;49.500;8.288;2024-03-29T13:13:00;2.92;;;2.53;;
23232;SDS011;11785;49.500;8.288;2024-03-29T13:15:26;3.42;;;2.55;;
23232;SDS011;11785;49.500;8.288;2024-03-29T13:17:53;2.75;;;2.50;;
23232;SDS011;11785;49.500;8.288;2024-03-29T13:20:20;3.50;;;3.20;;
23232;SDS011;11785;49.500;8.288;2024-03-29T13:22:47;4.25;;;2.92;;
23232;SDS011;11785;49.500;8.288;2024-03-29T13:25:18;6.28;;;2.97;;
23232;SDS011;11785;49.500;8.288;2024-03-29T13:27:45;3.70;;;2.72;;
23232;SDS011;11785;49.500;8.288;2024-03-29T13:30:18;2.97;;;2.65;;
23232;SDS011;11785;49.500;8.288;2024-03-29T13:32:45;5.07;;;3.00;;
23232;SDS011;11785;49.500;8.288;2024-03-29T13:35:11;3.15;;;2.60;;
23232;SDS011;11785;49.500;8.288;2024-03-29T13:37:37;3.17;;;2.85;;
23232;SDS011;11785;49.500;8.288;2024-03-29T13:40:08;5.18;;;3.58;;
23232;SDS011;11785;49.500;8.288;2024-03-29T13:42:37;3.30;;;3.00;;
23232;SDS011;11785;49.500;8.288;2024-03-29T13:45:04;7.93;;;3.78;;
23232;SDS011;11785;49.500;8.288;2024-03-29T13:47:34;4.30;;;3.20;;
23232;SDS011;11785;49.500;8.288;2024-03-29T13:50:08;5.47;;;3.30;;
23232;SDS011;11785;49.500;8.288;2024-03-29T13:52:35;6.22;;;3.28;;
23232;SDS011;11785;49.500;8.288;2024-03-29T13:55:01;4.97;;;3.42;;
23232;SDS011;11785;49.500;8.288;2024-03-29T13:57:28;4.28;;;3.40;;
23232;SDS011;11785;49.500;8.288;2024-03-29T13:59:54;7.57;;;6.65;;
23232;SDS011;11785;49.500;8.288;2024-03-29T14:02:20;4.25;;;3.85;;
23232;SDS011;11785;49.500;8.288;2024-03-29T14:04:46;6.00;;;4.65;;
23232;SDS011;11785;49.500;8.288;2024-03-29T14:07:13;5.45;;;3.15;;
23232;SDS011;11785;49.500;8.288;2024-03-29T14:09:40;6.95;;;3.17;;
23232;SDS011;11785;49.500;8.288;2024-03-29T14:12:06;4.38;;;3.65;;
23232;SDS011;11785;49.500;8.288;2024-03-29T14:17:00;3.83;;;2.72;;
23232;SDS011;11785;49.500;8.288;2024-03-29T14:19:31;3.35;;;2.60;;
23232;SDS011;11785;49.500;8.288;2024-03-29T14:22:03;6.43;;;3.23;;
23232;SDS011;11785;49.500;8.288;2024-03-29T14:24:29;5.95;;;3.60;;
23232;SDS011;11785;49.500;8.288;2024-03-29T14:26:58;4.50;;;3.10;;
23232;SDS011;11785;49.500;8.288;2024-03-29T14:29:23;4.55;;;3.00;;
23232;SDS011;11785;49.500;8.288;2024-03-29T14:31:49;5.32;;;4.07;;
23232;SDS011;11785;49.500;8.288;2024-03-29T14:34:15;3.63;;;2.83;;
23232;SDS011;11785;49.500;8.288;2024-03-29T14:36:41;2.50;;;2.15;;
23232;SDS011;11785;49.500;8.288;2024-03-29T14:39:08;4.57;;;2.15;;
23232;SDS011;11785;49.500;8.288;2024-03-29T14:41:34;3.35;;;2.30;;
23232;SDS011;11785;49.500;8.288;2024-03-29T14:44:01;2.58;;;2.28;;
23232;SDS011;11785;49.500;8.288;2024-03-29T14:46:28;2.72;;;2.20;;
23232;SDS011;11785;49.500;8.288;2024-03-29T14:48:53;3.78;;;2.10;;
23232;SDS011;11785;49.500;8.288;2024-03-29T14:51:19;2.58;;;1.83;;
23232;SDS011;11785;49.500;8.288;2024-03-29T14:53:46;2.55;;;2.30;;
23232;SDS011;11785;49.500;8.288;2024-03-29T14:56:17;2.67;;;2.33;;
23232;SDS011;11785;49.500;8.288;2024-03-29T14:58:43;2.42;;;1.85;;
23232;SDS011;11785;49.500;8.288;2024-03-29T15:01:10;2.30;;;2.00;;
23232;SDS011;11785;49.500;8.288;2024-03-29T15:03:35;5.25;;;2.00;;
23232;SDS011;11785;49.500;8.288;2024-03-29T15:06:01;2.33;;;2.13;;